Aeroporto :
LOGIN :

Iscrizione | Disclaimer

   EN    FR    IT 

 










Sommario :    VFR   VFR Marginale   IFR   IFR Intensivo   IFR Molto Intensivo
Visibilità : 
Base nubi : 
>= 8 km
>= 3000ft
5 / 8 km
1000 / 3000 ft
1500m / 5 km
500 / 1000 ft
800 / 1500m
200 / 500 ft
< 800m
< 200 ft
Simboli :   Temporali  Nebbia  Neve Forte  Precipitazioni Forti  Vento > 20 kt
SIGMETs :   Varie  Temporali  Ghiacco  Turbolenza  Onda orograficha  Ceneri Vulcaniche






- Altitudine del aeroporto : 670 ft
- Codice IATA : MSQ


UMMS - Minsk - 2

ULTIMO METAR :
  • 311503Z 04007MPS CAVOK 18/06 Q1012 R31R/////// R31L/CLRD// NOSIG

METARs OBSOLETI :
  • 311433Z 05007G14MPS 010V070 CAVOK 18/05 Q1012 WS R31L R31R/////// R31L/CLRD// NOSIG
  • 311426Z 05006G10MPS 010V070 9999 BKN049 18/06 Q1012 R31R/////// R31L/CLRD// NOSIG
  • 311400Z 03006G13MPS 350V090 9999 BKN049 18/06 Q1012 WS R31L R31R/////// R31L/CLRD// NOSIG
  • 311330Z 05008G12MPS 9999 BKN044 19/07 Q1012 WS R31L R31R/////// R31L/CLRD// NOSIG
  • 311325Z 05008G12MPS 9999 BKN044 19/07 Q1012 WS R31L R31R/////// R31L/CLRD// NOSIG
  • 311300Z 06009G12MPS 9999 BKN046 18/08 Q1012 R31R/////// R31L/CLRD// NOSIG
  • 311230Z 06008G12MPS 9999 BKN040 18/08 Q1012 R31R/////// R31L/CLRD// NOSIG

TAF TAF UMMS
Valido dal 31 a 12 ore il 01 a 12 ore UTC


311100Z 3112/0112 03008G13MPS 9999 BKN015
TEMPO 3112/3119 05013G18MPS 2000 SHRA BKN004 BKN020CB
TEMPO 3119/0106 04010G15MPS 3000 -SHRA BKN004 SCT020CB
TEMPO 0106/0112 03011G16MPS 1200 TSRA BKN004 BKN020CB



MetMap, La meteo Aeronautica in un colpo d'occhio ! - Copyright ORBIFLY Dicembre 2007 - Disclaimer

ORBIFLY MET'MAP TEAM :

Programmazione e sviluppo : Alexandra Zaïnal
Concezione : Baudouin d'Aumeries
Aiuto per la programmazione : Marc-Olivier Méhu
Supporto tecnico e logistico : Manuel Goepfert
Aiuto per la traduzione : Arnaldo La Scala

Contatto : metmap@orbifly.com




FONTI E CREDITI :

   NOAA